RAMO2: Caney River, Ramona, OK

Data processed at Fri Jun 05 2020 23:15


All information presented herein is the property of the government of the United States of America and may be revised or deleted at any time without prior notice.
Dissemination of this information without the expressed written consent of the Public Affairs Office, Tulsa District U.S. Army Corps of Engineers is strictly prohibited.
These data are gathered electronically and, as presented, have not undergone any form of quality control. These data are not guaranteed to be valid or correct.
Go to home page.
Go to station list.
Go to home page.

Upstream stations:

Downstream station:
Previous Day
Next Day
Current Day
    
SHEF ID:       RAMO2     Caney River near Ramona, OK
STATION TYPE:  
Regulating: Stage =    26.00, Flow =    14852

               PRECIP     STAGE  STAGE(2)  RIV-FLOW   VOLTAGE  BAT-LOAD
                   in        ft        ft       cfs      volt      volt
              Ccp-Rev   Ccp-Rev   Ccp-Rev   Ccp-Rev   Ccp-Rev   Ccp-Rev
(US/Central)
06/05 00:00      0.00     11.09      9.88      4019     12.60      ----
06/05 01:00      0.00     11.08      9.83      4014     12.60      ----
06/05 02:00      0.00     11.08      9.72      4014     12.60      ----
06/05 03:00      0.00     11.07      9.61      4009     12.60      ----
06/05 04:00      0.00     11.08      9.55      4014     12.60      ----
06/05 05:00      0.00     11.07      9.47      4009     12.60      ----
06/05 06:00      0.00     11.07      9.33      4009     12.60      ----
06/05 07:00      0.00     11.05      9.32      3998     12.60      ----
06/05 08:00      0.00     11.05      9.55      3998     12.60      ----
06/05 09:00      0.00     11.04     10.25      3993     12.90      ----
06/05 10:00      0.00     11.02     10.80      3982     13.20      ----
06/05 11:00      0.00     11.02     10.78      3982     13.10      ----
06/05 12:00      0.00     11.01     10.74      3977     13.20      ----
06/05 13:00      0.00     10.99     10.66      3966     13.60      ----
06/05 14:00      0.00     11.00     10.64      3971     13.60      ----
06/05 15:00      0.00     10.99     10.59      3966     13.60      ----
06/05 16:00      0.00     10.99     10.52      3966     13.50      ----
06/05 17:00      0.00     10.97      9.93      3955     12.90      ----
06/05 18:00      0.00     10.97      9.81      3955     12.90      ----
06/05 19:00      0.00     10.96      9.69      3950     12.80      ----
06/05 20:00      0.00     10.95      9.43      3945     12.70      ----
06/05 21:00      0.00     10.95      9.13      3945     12.70      ----
06/05 22:00      0.00     10.95      8.98      3945     12.70      ----
06/05 23:00      ----      ----      ----      ----      ----      ----